»·PEaware :: WAT295 KSAN-KLAS

WAT295 :: KSAN-KLAS

FLIGHT INFORMATION

Flight Status: Arrived
Operator: Unknown
More flights by this operator :: More flights under this callsign
Pilot: Corentin D. (28157)
Aircraft: BEECH AIRCRAFT PREMIER
(PRM1)
More flights by this aircraft type
Origin: KSAN San Diego Intl-Lindbergh
United States
Destination: KLAS McCarran Intl
United States
More flights between these airports :: More routes between these airports
Route: +PADRZ2 CHKNN SEBBY YELAH MISEN KEPEC6
File this flight plan on PilotEdge
Remarks:
Altitude:
(Current/Filed)
26,000ft
Speed:
(Current/Filed)
270kts
Departed: 29-Jul-20 12:27 PM
Arrived: 29-Jul-20 01:39 PM
Distance/Time
Traveled:
224nm/1:12
Distance/Time
To Go:
Arrived

Flight Plot

Page will automatically refresh every two minutes.


Map Options




Map Legend


Flown Route
Filed Route
Departure Airport
Arrival Airport
Navaid (VOR, NDB)
Fix

Horizontal Profiles

Position Reports

Time Latitude Longitude Heading Altitude Ground
Speed
29-Jul-20 12:03 32.733205 -117.176958 232 23ft 0kts
29-Jul-20 12:04 32.733205 -117.176958 232 23ft 0kts
29-Jul-20 12:05 32.733205 -117.176958 232 23ft 0kts
29-Jul-20 12:06 32.733205 -117.176958 232 23ft 0kts
29-Jul-20 12:07 32.733205 -117.176958 232 23ft 0kts
29-Jul-20 12:08 32.733205 -117.176958 232 23ft 0kts
29-Jul-20 12:09 32.733205 -117.176958 232 23ft 0kts
29-Jul-20 12:10 32.733205 -117.176958 232 23ft 0kts
29-Jul-20 12:11 32.733205 -117.176958 232 23ft 0kts
29-Jul-20 12:12 32.733205 -117.176958 232 23ft 0kts
29-Jul-20 12:13 32.733205 -117.176958 232 23ft 0kts
29-Jul-20 12:14 32.733205 -117.176958 232 23ft 0kts
29-Jul-20 12:15 32.733205 -117.176958 232 23ft 0kts
29-Jul-20 12:16 32.733205 -117.176958 232 23ft 0kts
29-Jul-20 12:17 32.733205 -117.176958 232 23ft 0kts
29-Jul-20 12:18 32.733205 -117.176958 232 23ft 0kts
29-Jul-20 12:19 32.733205 -117.176958 232 23ft 0kts
29-Jul-20 12:20 32.733380 -117.179540 198 23ft 12kts
29-Jul-20 12:21 32.731741 -117.177395 105 23ft 16kts
29-Jul-20 12:22 32.730961 -117.175553 147 23ft 0kts
29-Jul-20 12:23 32.730961 -117.175553 147 23ft 0kts
29-Jul-20 12:24 32.730961 -117.175553 147 23ft 0kts
29-Jul-20 12:25 32.730550 -117.175295 166 23ft 14kts
29-Jul-20 12:26 32.734106 -117.191453 288 152ft 141kts
29-Jul-20 12:27 32.755847 -117.239959 303 2518ft 191kts
29-Jul-20 12:28 32.786767 -117.295235 300 4535ft 202kts
29-Jul-20 12:29 32.818812 -117.348269 304 6509ft 194kts
29-Jul-20 12:30 32.851384 -117.398900 303 7990ft 211kts
29-Jul-20 12:31 32.892849 -117.463295 304 7987ft 261kts
29-Jul-20 12:32 32.937725 -117.533052 304 7984ft 267kts
29-Jul-20 12:33 32.981697 -117.601551 304 9121ft 243kts
29-Jul-20 12:34 33.019751 -117.660945 303 11065ft 207kts
29-Jul-20 12:35 33.052518 -117.712268 303 13060ft 205kts
29-Jul-20 12:36 33.095031 -117.761459 316 15098ft 219kts
29-Jul-20 12:37 33.140299 -117.807468 315 17072ft 208kts
29-Jul-20 12:38 33.182975 -117.850886 314 19028ft 193kts
29-Jul-20 12:39 33.233741 -117.847467 32 20467ft 216kts
29-Jul-20 12:40 33.283560 -117.808261 32 22221ft 219kts
29-Jul-20 12:41 33.336398 -117.767892 30 23740ft 232kts
29-Jul-20 12:42 33.391993 -117.725951 30 25256ft 239kts
29-Jul-20 12:43 33.446218 -117.685065 29 26021ft 275kts
29-Jul-20 12:44 33.515866 -117.632214 30 26015ft 316kts
29-Jul-20 12:45 33.594206 -117.572858 30 26016ft 347kts
29-Jul-20 12:46 33.678336 -117.508939 30 26016ft 369kts
29-Jul-20 12:47 33.764969 -117.442981 30 26013ft 364kts
29-Jul-20 12:48 33.849025 -117.378848 30 26011ft 357kts
29-Jul-20 12:49 33.932072 -117.315313 31 26002ft 352kts
29-Jul-20 12:50 34.011812 -117.254175 31 26013ft 348kts
29-Jul-20 12:51 34.093013 -117.191778 30 26019ft 346kts
29-Jul-20 12:52 34.173864 -117.129629 31 26015ft 344kts
29-Jul-20 12:53 34.254417 -117.067294 30 26016ft 343kts
29-Jul-20 12:54 34.334694 -117.005147 30 26015ft 342kts
29-Jul-20 12:55 34.414627 -116.943142 29 26012ft 341kts
29-Jul-20 12:56 34.497596 -116.878659 30 25078ft 367kts
29-Jul-20 12:57 34.585666 -116.809975 30 24104ft 382kts
29-Jul-20 12:58 34.674097 -116.740832 30 24008ft 368kts
29-Jul-20 12:59 34.758737 -116.674529 30 24009ft 356kts
29-Jul-20 13:00 34.840995 -116.609936 30 24011ft 348kts
29-Jul-20 13:01 34.921790 -116.546333 30 24013ft 344kts
29-Jul-20 13:02 35.001899 -116.483113 31 24024ft 341kts
29-Jul-20 13:03 35.081777 -116.419920 32 23693ft 352kts
29-Jul-20 13:04 35.156595 -116.336167 46 21951ft 369kts
29-Jul-20 13:05 35.228107 -116.246170 46 19942ft 368kts
29-Jul-20 13:06 35.299449 -116.156461 47 17922ft 363kts
29-Jul-20 13:07 35.368708 -116.069192 47 15919ft 350kts
29-Jul-20 13:09 35.433780 -115.987032 47 13896ft 322kts
29-Jul-20 13:10 35.492734 -115.912426 47 13035ft 289kts
29-Jul-20 13:11 35.548053 -115.842148 47 13036ft 285kts
29-Jul-20 13:12 35.603088 -115.772134 47 13036ft 283kts
29-Jul-20 13:13 35.657572 -115.702549 47 13036ft 282kts
29-Jul-20 13:14 35.712029 -115.633123 47 13037ft 281kts
29-Jul-20 13:15 35.773829 -115.576492 13 13043ft 288kts
29-Jul-20 13:16 35.858965 -115.569526 2 13038ft 318kts
29-Jul-20 13:17 35.945122 -115.556388 26 12217ft 303kts
29-Jul-20 13:18 35.996463 -115.484662 69 11008ft 274kts
29-Jul-20 13:19 36.024598 -115.395753 71 11005ft 282kts
29-Jul-20 13:20 36.026263 -115.304423 97 9122ft 254kts
29-Jul-20 13:21 36.019755 -115.218298 97 9027ft 252kts
29-Jul-20 13:22 36.013649 -115.130621 96 8094ft 254kts
29-Jul-20 13:23 36.008092 -115.045077 95 8004ft 252kts
29-Jul-20 13:23 36.003819 -114.972185 94 7988ft 258kts
29-Jul-20 13:25 35.997736 -114.869659 94 7981ft 256kts
29-Jul-20 13:26 35.992466 -114.786441 94 7963ft 212kts
29-Jul-20 13:26 35.988513 -114.727189 94 7980ft 205kts
29-Jul-20 13:28 35.983972 -114.643323 79 7982ft 213kts
29-Jul-20 13:29 36.026073 -114.602538 1 7987ft 207kts
29-Jul-20 13:29 36.059060 -114.633057 277 7995ft 194kts
29-Jul-20 13:30 36.069679 -114.698676 278 7980ft 194kts
29-Jul-20 13:32 36.072850 -114.775141 270 7638ft 188kts
29-Jul-20 13:32 36.073253 -114.828264 270 6844ft 190kts
29-Jul-20 13:33 36.073418 -114.895892 269 5789ft 199kts
29-Jul-20 13:34 36.073512 -114.963496 269 4665ft 181kts
29-Jul-20 13:35 36.073569 -115.020231 270 3705ft 167kts
29-Jul-20 13:36 36.073632 -115.075371 271 2899ft 152kts
29-Jul-20 13:37 36.073541 -115.120183 272 2197ft 126kts
29-Jul-20 13:38 36.074167 -115.144702 292 2099ft 21kts
29-Jul-20 13:39 36.077226 -115.146565 2 2102ft 6kts
29-Jul-20 13:40 36.077629 -115.146769 313 2102ft 12kts
29-Jul-20 13:41 36.078034 -115.153207 270 2123ft 18kts
29-Jul-20 13:42 36.078028 -115.159767 270 2146ft 16kts
29-Jul-20 13:43 36.078021 -115.164344 268 2162ft 12kts
29-Jul-20 13:44 36.078143 -115.169854 307 2179ft 8kts
29-Jul-20 13:45 36.081025 -115.170771 237 2172ft 11kts

Navigation Log

Ident Type
Flight plan parsing failed, navigation log unavailable